createdAt,value
2023-01-05T00:02:55.371Z,101390.34
2023-01-05T00:08:00.424Z,101391.94
2023-01-05T00:13:21.550Z,101391.38
2023-01-05T00:18:44.519Z,101382.66
2023-01-05T00:23:46.219Z,101387.31
2023-01-05T00:28:48.182Z,101388.16
2023-01-05T00:33:50.030Z,101392.25
2023-01-05T00:38:51.847Z,101402.22
2023-01-05T00:43:55.049Z,101408.72
2023-01-05T00:48:57.012Z,101425.91
2023-01-05T00:53:58.932Z,101422.53
2023-01-05T00:59:01.015Z,101428.56
2023-01-05T01:04:02.964Z,101427.72
2023-01-05T01:09:05.751Z,101445.47
2023-01-05T01:14:08.962Z,101442.84
2023-01-05T01:19:16.945Z,101447.50
2023-01-05T01:24:27.985Z,101452.88
2023-01-05T01:29:32.815Z,101459.19
2023-01-05T01:34:35.011Z,101462.09
2023-01-05T01:39:37.567Z,101467.88
2023-01-05T01:44:58.527Z,101462.78
2023-01-05T01:50:36.061Z,101469.84
2023-01-05T01:55:39.556Z,101490.81
2023-01-05T02:00:41.334Z,101497.16
2023-01-05T02:05:43.305Z,101497.72
2023-01-05T02:11:09.454Z,101491.03
2023-01-05T02:16:43.150Z,101483.34
2023-01-05T02:22:18.824Z,101493.00
2023-01-05T02:27:37.101Z,101495.75
2023-01-05T02:33:01.624Z,101515.75
2023-01-05T02:38:19.204Z,101500.84
2023-01-05T02:43:21.447Z,101497.09
2023-01-05T02:48:23.373Z,101500.53
2023-01-05T02:53:28.070Z,101498.25
2023-01-05T02:58:37.086Z,101504.91
2023-01-05T03:03:46.018Z,101501.59
2023-01-05T03:08:58.649Z,101498.88
2023-01-05T03:14:12.655Z,101510.72
2023-01-05T03:19:35.711Z,101506.66
2023-01-05T03:24:58.802Z,101504.91
2023-01-05T03:30:19.465Z,101504.63
2023-01-05T03:35:30.524Z,101526.88
2023-01-05T03:40:37.071Z,101521.94
2023-01-05T03:45:44.684Z,101516.47
2023-01-05T03:50:54.654Z,101520.91
2023-01-05T03:55:58.500Z,101520.06
2023-01-05T04:01:00.714Z,101524.56
2023-01-05T04:06:04.006Z,101523.38
2023-01-05T04:11:13.447Z,101516.75
2023-01-05T04:16:15.928Z,101518.66
2023-01-05T04:21:18.231Z,101524.84
2023-01-05T04:26:20.164Z,101530.97
2023-01-05T04:31:24.561Z,101532.38
2023-01-05T04:36:28.676Z,101547.28
2023-01-05T04:41:32.485Z,101548.84
2023-01-05T04:46:34.358Z,101550.59
2023-01-05T04:51:37.391Z,101551.75
2023-01-05T04:56:40.837Z,101552.94
2023-01-05T05:01:43.619Z,101560.16
2023-01-05T05:06:47.656Z,101564.78
2023-01-05T05:11:50.076Z,101561.88
2023-01-05T05:16:55.519Z,101572.31
2023-01-05T05:21:58.285Z,101571.69
2023-01-05T05:27:01.516Z,101589.06
2023-01-05T05:32:04.493Z,101584.09
2023-01-05T05:37:06.785Z,101590.63
2023-01-05T05:42:08.506Z,101593.50
2023-01-05T05:47:10.148Z,101597.13
2023-01-05T05:52:11.762Z,101609.00
2023-01-05T05:57:13.592Z,101611.72
2023-01-05T06:02:24.519Z,101606.06
2023-01-05T06:07:27.523Z,101626.63
2023-01-05T06:12:29.145Z,101624.03
2023-01-05T06:17:30.959Z,101635.56
2023-01-05T06:22:32.730Z,101641.78
2023-01-05T06:27:34.558Z,101654.09
2023-01-05T06:32:36.257Z,101650.91
2023-01-05T06:37:37.949Z,101659.44
2023-01-05T06:42:40.055Z,101662.78
2023-01-05T06:47:42.305Z,101666.25
2023-01-05T06:52:43.976Z,101668.13
2023-01-05T06:57:46.004Z,101679.25
2023-01-05T07:02:47.751Z,101679.97
2023-01-05T07:07:49.332Z,101685.00
2023-01-05T07:12:50.983Z,101690.81
2023-01-05T07:17:52.742Z,101697.75
2023-01-05T07:22:54.359Z,101699.63
2023-01-05T07:27:55.984Z,101702.19
2023-01-05T07:33:01.171Z,101698.91
2023-01-05T07:38:02.811Z,101687.94
2023-01-05T07:43:05.225Z,101700.94
2023-01-05T07:48:06.963Z,101696.47
2023-01-05T07:53:08.600Z,101708.16
2023-01-05T07:58:10.314Z,101713.06
2023-01-05T08:03:12.018Z,101735.50
2023-01-05T08:08:19.090Z,101735.38
2023-01-05T08:13:42.718Z,101747.22
2023-01-05T08:18:44.453Z,101754.72
2023-01-05T08:23:46.169Z,101756.47
2023-01-05T08:28:47.922Z,101762.13
2023-01-05T08:33:50.473Z,101765.72
2023-01-05T08:38:53.524Z,101789.97
2023-01-05T08:43:57.478Z,101792.31
2023-01-05T08:49:01.752Z,101797.06
2023-01-05T08:54:03.518Z,101808.78
2023-01-05T08:59:05.247Z,101802.25
2023-01-05T09:04:08.935Z,101800.09
2023-01-05T09:09:10.659Z,101806.91
2023-01-05T09:14:15.135Z,101817.44
2023-01-05T09:19:17.097Z,101817.63
2023-01-05T09:24:19.398Z,101815.28
2023-01-05T09:29:21.358Z,101827.69
2023-01-05T09:34:23.147Z,101828.41
2023-01-05T09:39:25.113Z,101827.41
2023-01-05T09:44:30.250Z,101837.38
2023-01-05T09:49:34.183Z,101847.19
2023-01-05T09:54:37.826Z,101853.25
2023-01-05T09:59:43.974Z,101863.38
2023-01-05T10:04:46.910Z,101864.97
2023-01-05T10:09:49.599Z,101886.22
2023-01-05T10:14:58.770Z,101895.19
2023-01-05T10:20:00.520Z,101880.25
2023-01-05T10:25:19.100Z,101883.31
2023-01-05T10:30:27.339Z,101875.53
2023-01-05T10:36:00.334Z,101881.03
2023-01-05T10:41:09.967Z,101876.38
2023-01-05T10:46:35.416Z,101886.78
2023-01-05T10:51:40.005Z,101880.56
2023-01-05T10:56:41.663Z,101880.69
2023-01-05T11:01:46.907Z,101882.13
2023-01-05T11:06:49.485Z,101875.19
2023-01-05T11:11:59.407Z,101865.63
2023-01-05T11:17:02.970Z,101877.75
2023-01-05T11:22:04.667Z,101868.78
2023-01-05T11:27:21.749Z,101868.50
2023-01-05T11:32:23.586Z,101869.50
2023-01-05T11:37:26.618Z,101865.72
2023-01-05T11:42:34.438Z,101874.38
2023-01-05T11:47:44.898Z,101862.66
2023-01-05T11:52:54.174Z,101858.75
2023-01-05T11:58:12.359Z,101851.22
2023-01-05T12:03:23.058Z,101857.72
2023-01-05T12:08:30.975Z,101857.16
2023-01-05T12:13:58.799Z,101853.41
2023-01-05T12:19:12.740Z,101845.41
2023-01-05T12:24:36.314Z,101848.63
2023-01-05T12:31:34.459Z,101851.03
2023-01-05T12:35:52.091Z,101848.28
2023-01-05T12:40:56.755Z,101846.59
2023-01-05T12:46:04.871Z,101846.72
2023-01-05T12:51:16.743Z,101851.84
2023-01-05T12:56:25.963Z,101852.13
2023-01-05T13:01:31.600Z,101854.88
2023-01-05T13:06:42.687Z,101844.38
2023-01-05T13:11:49.094Z,101843.06
2023-01-05T13:16:58.496Z,101835.81
2023-01-05T13:22:05.000Z,101844.22
2023-01-05T13:27:06.735Z,101849.88
2023-01-05T13:32:37.563Z,101838.41
2023-01-05T13:38:07.848Z,101832.06
2023-01-05T13:43:30.869Z,101833.16
2023-01-05T13:49:03.305Z,101843.63
2023-01-05T13:54:14.232Z,101832.34
2023-01-05T13:59:35.835Z,101838.72
2023-01-05T14:04:46.612Z,101836.97
2023-01-05T14:09:52.995Z,101826.84
2023-01-05T14:15:01.217Z,101826.25
2023-01-05T14:20:03.244Z,101819.88
2023-01-05T14:25:39.555Z,101824.66
2023-01-05T14:30:41.363Z,101825.97
2023-01-05T14:35:44.434Z,101816.91
2023-01-05T14:41:15.861Z,101824.59
2023-01-05T14:46:18.578Z,101817.41
2023-01-05T14:51:26.308Z,101820.59
2023-01-05T14:56:38.547Z,101808.59
2023-01-05T15:01:50.215Z,101813.38
2023-01-05T15:07:26.278Z,101815.00
2023-01-05T15:13:21.075Z,101807.63
2023-01-05T15:18:31.855Z,101809.06
2023-01-05T15:23:42.974Z,101807.03
2023-01-05T15:29:03.380Z,101808.06
2023-01-05T15:34:21.129Z,101798.50
2023-01-05T15:39:33.478Z,101785.66
2023-01-05T15:44:44.354Z,101782.91
2023-01-05T15:49:47.544Z,101779.88
2023-01-05T15:55:19.245Z,101763.69
2023-01-05T16:00:28.059Z,101767.28
2023-01-05T16:05:35.942Z,101757.63
2023-01-05T16:10:42.010Z,101754.59
2023-01-05T16:15:57.327Z,101755.59
2023-01-05T16:21:05.025Z,101764.13
2023-01-05T16:26:15.098Z,101750.94
2023-01-05T16:31:33.755Z,101740.66
2023-01-05T16:36:35.398Z,101741.38
2023-01-05T16:41:57.050Z,101737.59
2023-01-05T16:47:33.406Z,101736.16
2023-01-05T16:52:45.942Z,101738.59
2023-01-05T16:57:48.314Z,101728.91
2023-01-05T17:02:50.210Z,101725.31
2023-01-05T17:07:57.824Z,101717.31
2023-01-05T17:13:06.720Z,101716.72
2023-01-05T17:23:28.114Z,101715.28
2023-01-05T17:28:29.792Z,101704.88
2023-01-05T17:33:31.512Z,101708.31
2023-01-05T17:38:33.199Z,101708.03
2023-01-05T17:43:34.820Z,101698.91
2023-01-05T17:48:36.410Z,101693.13
2023-01-05T17:53:38.085Z,101678.34
2023-01-05T17:58:39.723Z,101674.59
2023-01-05T18:03:41.409Z,101670.66
2023-01-05T18:08:43.673Z,101670.50
2023-01-05T18:13:45.537Z,101670.19
2023-01-05T18:18:47.187Z,101664.25
2023-01-05T18:23:48.835Z,101655.53
2023-01-05T18:28:52.579Z,101648.53
2023-01-05T18:33:54.364Z,101650.97
2023-01-05T18:38:56.351Z,101645.31
2023-01-05T18:43:58.167Z,101640.53
2023-01-05T18:48:59.808Z,101646.72
2023-01-05T18:54:02.514Z,101638.22
2023-01-05T18:59:04.274Z,101635.47
2023-01-05T19:04:07.104Z,101640.97
2023-01-05T19:09:11.318Z,101645.28
2023-01-05T19:14:14.691Z,101641.34
2023-01-05T19:19:20.137Z,101637.03
2023-01-05T19:24:25.375Z,101634.44
2023-01-05T19:29:27.162Z,101637.03
2023-01-05T19:34:31.323Z,101639.78
2023-01-05T19:39:32.987Z,101638.22
2023-01-05T19:44:34.593Z,101629.34
2023-01-05T19:49:36.264Z,101629.63
2023-01-05T19:54:39.390Z,101620.84
2023-01-05T19:59:41.061Z,101619.81
2023-01-05T20:04:45.480Z,101610.53
2023-01-05T20:09:51.381Z,101619.81
2023-01-05T20:14:53.124Z,101618.63
2023-01-05T20:19:54.933Z,101605.03
2023-01-05T20:24:56.549Z,101597.69
2023-01-05T20:30:01.111Z,101596.63
2023-01-05T20:35:02.867Z,101590.44
2023-01-05T20:40:05.550Z,101600.09
2023-01-05T20:45:08.006Z,101591.47
2023-01-05T20:50:12.003Z,101581.19
2023-01-05T20:55:13.726Z,101586.84
2023-01-05T21:00:16.707Z,101593.53
2023-01-05T21:05:18.542Z,101582.53
2023-01-05T21:10:20.544Z,101576.13
2023-01-05T21:15:24.603Z,101577.53
2023-01-05T21:20:27.813Z,101583.50
2023-01-05T21:25:29.828Z,101587.28
2023-01-05T21:30:51.564Z,101587.69
2023-01-05T21:35:56.434Z,101584.09
2023-01-05T21:41:06.169Z,101583.94
2023-01-05T21:46:14.798Z,101574.09
2023-01-05T21:51:34.820Z,101570.19
2023-01-05T21:56:40.282Z,101580.16
2023-01-05T22:01:41.869Z,101564.59
2023-01-05T22:06:43.895Z,101557.34
2023-01-05T22:11:45.666Z,101552.56
2023-01-05T22:16:47.388Z,101552.56
2023-01-05T22:21:49.163Z,101546.19
2023-01-05T22:26:50.947Z,101540.16
2023-01-05T22:31:52.920Z,101553.88
2023-01-05T22:36:54.610Z,101552.47
2023-01-05T22:41:56.320Z,101565.94
2023-01-05T22:46:57.992Z,101547.69
2023-01-05T22:51:59.683Z,101549.34
2023-01-05T22:57:01.352Z,101548.31
2023-01-05T23:02:03.090Z,101534.88
2023-01-05T23:07:04.696Z,101533.03
2023-01-05T23:12:06.473Z,101522.31
2023-01-05T23:17:12.246Z,101507.94
2023-01-05T23:22:13.950Z,101512.03
2023-01-05T23:27:15.597Z,101498.28
2023-01-05T23:32:17.259Z,101500.50
2023-01-05T23:37:18.889Z,101497.03
2023-01-05T23:42:39.017Z,101504.59
2023-01-05T23:47:40.894Z,101488.66
2023-01-05T23:52:42.593Z,101484.56
2023-01-05T23:57:46.595Z,101494.13
